Time;durP1;ratioP1;P1;durP2;ratioP2;P2;SDS_P1;SDS_P2;PMS_P1;PMS_P2;Temp;Humidity;BMP_temperature;BMP_pressure;BME280_temperature;BME280_humidity;BME280_pressure;Samples;Min_cycle;Max_cycle;Signal;HPM_P1;HPM_P2
2022/03/18 00:03:52;;;;;;;;;15.00;15.00;;;;;;;;2;261081038;261081038;-84
2022/03/18 00:12:11;;;;;;;;;27.50;12.50;;;;;;;;2;261080969;261080969;-84
2022/03/18 00:21:13;;;;;;;;;16.50;16.50;;;;;;;;2;261076516;261076516;-85
2022/03/18 00:29:28;;;;;;;;;25.00;14.00;;;;;;;;2;261078716;261078716;-86
2022/03/18 00:38:29;;;;;;;;;28.00;12.50;;;;;;;;2;261076965;261076965;-86
2022/03/18 00:46:45;;;;;;;;;16.50;14.50;;;;;;;;2;261079949;261079949;-86
2022/03/18 00:55:45;;;;;;;;;16.00;16.00;;;;;;;;2;261076471;261076471;-85
2022/03/18 01:04:00;;;;;;;;;16.00;14.50;;;;;;;;2;261076371;261076371;-85
2022/03/18 01:13:01;;;;;;;;;35.00;18.50;;;;;;;;2;261074341;261074341;-85
2022/03/18 01:21:16;;;;;;;;;29.50;17.50;;;;;;;;2;261076308;261076308;-85
2022/03/18 01:30:17;;;;;;;;;28.50;16.50;;;;;;;;2;261077972;261077972;-85
2022/03/18 01:38:32;;;;;;;;;23.00;23.00;;;;;;;;2;261079249;261079249;-86
2022/03/18 01:47:32;;;;;;;;;15.50;15.50;;;;;;;;2;261075362;261075362;-85
2022/03/18 01:55:48;;;;;;;;;18.50;14.50;;;;;;;;2;261071901;261071901;-85
2022/03/18 02:04:49;;;;;;;;;20.00;20.00;;;;;;;;2;261074114;261074114;-84
2022/03/18 02:13:04;;;;;;;;;11.00;11.00;;;;;;;;2;261072341;261072341;-85
2022/03/18 02:22:10;;;;;;;;;29.00;17.00;;;;;;;;2;261069813;261069813;-85
2022/03/18 02:30:28;;;;;;;;;23.50;19.50;;;;;;;;2;261074152;261074152;-85
2022/03/18 02:39:28;;;;;;;;;17.00;17.00;;;;;;;;2;261076419;261076419;-85
2022/03/18 02:47:44;;;;;;;;;45.00;24.00;;;;;;;;2;261076255;261076255;-85
2022/03/18 02:56:44;;;;;;;;;19.50;19.50;;;;;;;;2;261074758;261074758;-85
2022/03/18 03:14:18;;;;;;;;;40.00;23.50;;;;;;;;2;261071892;261071892;-85
2022/03/18 03:22:34;;;;;;;;;38.50;26.50;;;;;;;;2;261075523;261075523;-85
2022/03/18 03:31:34;;;;;;;;;25.50;25.50;;;;;;;;2;261076959;261076959;-85
2022/03/18 03:39:50;;;;;;;;;30.50;26.50;;;;;;;;2;261074500;261074500;-85
2022/03/18 03:48:51;;;;;;;;;50.50;29.50;;;;;;;;2;261071585;261071585;-85
2022/03/18 03:57:07;;;;;;;;;35.50;28.00;;;;;;;;2;261074550;261074550;-85
2022/03/18 04:06:07;;;;;;;;;28.00;27.00;;;;;;;;2;261072095;261072095;-85
2022/03/18 04:14:23;;;;;;;;;40.50;24.00;;;;;;;;2;261073360;261073360;-84
2022/03/18 04:23:23;;;;;;;;;26.50;23.50;;;;;;;;2;261071996;261071996;-83
2022/03/18 04:31:39;;;;;;;;;26.50;26.00;;;;;;;;2;261073957;261073957;-83
2022/03/18 04:40:39;;;;;;;;;29.00;25.00;;;;;;;;2;261073667;261073667;-85
2022/03/18 04:48:55;;;;;;;;;24.50;13.00;;;;;;;;2;261071702;261071702;-85
2022/03/18 04:57:55;;;;;;;;;29.00;26.00;;;;;;;;2;261074147;261074147;-85
2022/03/18 05:06:11;;;;;;;;;48.50;26.00;;;;;;;;2;261076505;261076505;-85
2022/03/18 05:15:12;;;;;;;;;17.50;14.50;;;;;;;;2;261074781;261074781;-85
2022/03/18 05:23:27;;;;;;;;;20.50;17.00;;;;;;;;2;261073747;261073747;-85
2022/03/18 05:32:28;;;;;;;;;19.50;19.50;;;;;;;;2;261072308;261072308;-85
2022/03/18 05:40:43;;;;;;;;;23.50;15.50;;;;;;;;2;261072764;261072764;-85
2022/03/18 05:49:45;;;;;;;;;21.00;17.00;;;;;;;;2;261069339;261069339;-85
2022/03/18 05:58:04;;;;;;;;;20.00;16.00;;;;;;;;2;261067566;261067566;-88
2022/03/18 06:07:05;;;;;;;;;16.00;16.00;;;;;;;;2;261074875;261074875;-87
2022/03/18 06:15:23;;;;;;;;;17.50;5.50;;;;;;;;2;261074471;261074471;-87
2022/03/18 06:24:24;;;;;;;;;12.50;12.50;;;;;;;;2;261083746;261083746;-87
2022/03/18 06:32:40;;;;;;;;;35.00;18.00;;;;;;;;2;261080682;261080682;-87
2022/03/18 06:41:40;;;;;;;;;17.50;17.50;;;;;;;;2;261078702;261078702;-83
2022/03/18 06:49:56;;;;;;;;;16.50;16.50;;;;;;;;2;261078613;261078613;-83
2022/03/18 06:58:57;;;;;;;;;19.50;19.50;;;;;;;;2;261078026;261078026;-83
2022/03/18 07:07:12;;;;;;;;;17.00;17.00;;;;;;;;2;261077933;261077933;-82
2022/03/18 07:24:47;;;;;;;;;25.50;21.00;;;;;;;;2;261081596;261081596;-80
2022/03/18 07:33:48;;;;;;;;;22.00;18.50;;;;;;;;2;261077245;261077245;-83
2022/03/18 07:42:09;;;;;;;;;33.50;29.00;;;;;;;;2;261065188;261065188;-83
2022/03/18 07:51:09;;;;;;;;;15.00;15.00;;;;;;;;2;261075877;261075877;-81
2022/03/18 07:59:25;;;;;;;;;18.00;14.50;;;;;;;;2;261071751;261071751;-83
2022/03/18 08:08:25;;;;;;;;;22.00;20.50;;;;;;;;2;261072865;261072865;-83
2022/03/18 08:16:41;;;;;;;;;17.00;11.50;;;;;;;;2;261074611;261074611;-83
2022/03/18 08:25:41;;;;;;;;;20.00;20.00;;;;;;;;2;261070922;261070922;-83
2022/03/18 08:33:56;;;;;;;;;32.00;21.00;;;;;;;;2;261076543;261076543;-83
2022/03/18 08:42:58;;;;;;;;;18.50;18.50;;;;;;;;2;261075328;261075328;-83
2022/03/18 08:51:15;;;;;;;;;20.00;16.00;;;;;;;;2;261068022;261068022;-84
2022/03/18 09:00:17;;;;;;;;;12.50;12.50;;;;;;;;2;261074315;261074315;-84
2022/03/18 09:08:32;;;;;;;;;15.50;15.50;;;;;;;;2;261071229;261071229;-83
2022/03/18 09:17:33;;;;;;;;;13.50;13.50;;;;;;;;2;261072637;261072637;-84
2022/03/18 09:25:48;;;;;;;;;19.00;19.00;;;;;;;;2;261067373;261067373;-84
2022/03/18 09:34:49;;;;;;;;;9.50;7.00;;;;;;;;2;261074442;261074442;-85
2022/03/18 09:43:08;;;;;;;;;17.00;17.00;;;;;;;;2;261073849;261073849;-83
2022/03/18 09:52:10;;;;;;;;;9.00;9.00;;;;;;;;2;261070736;261070736;-85
2022/03/18 10:00:25;;;;;;;;;8.50;8.50;;;;;;;;2;261077415;261077415;-85
2022/03/18 10:09:28;;;;;;;;;13.00;13.00;;;;;;;;2;261071277;261071277;-83
2022/03/18 10:17:48;;;;;;;;;7.00;7.00;;;;;;;;2;261067891;261067891;-83
2022/03/18 10:26:51;;;;;;;;;5.50;5.50;;;;;;;;2;261067994;261067994;-84
2022/03/18 10:44:28;;;;;;;;;9.50;9.50;;;;;;;;2;261072214;261072214;-84
2022/03/18 10:52:49;;;;;;;;;8.50;8.50;;;;;;;;2;261075004;261075004;-84
2022/03/18 11:01:51;;;;;;;;;6.00;6.00;;;;;;;;2;261077274;261077274;-84
2022/03/18 11:19:27;;;;;;;;;11.00;11.00;;;;;;;;2;261077794;261077794;-85
2022/03/18 11:27:44;;;;;;;;;23.50;11.50;;;;;;;;2;261075774;261075774;-85
2022/03/18 11:36:46;;;;;;;;;8.50;8.50;;;;;;;;2;261080108;261080108;-85
2022/03/18 11:45:01;;;;;;;;;5.50;5.50;;;;;;;;2;261074955;261074955;-85
2022/03/18 11:54:02;;;;;;;;;7.50;7.50;;;;;;;;2;261080548;261080548;-85
2022/03/18 12:02:18;;;;;;;;;5.50;5.50;;;;;;;;2;261078361;261078361;-85
2022/03/18 12:11:25;;;;;;;;;7.50;7.50;;;;;;;;2;261075689;261075689;-85
2022/03/18 12:19:47;;;;;;;;;4.00;4.00;;;;;;;;2;261076304;261076304;-85
2022/03/18 12:28:49;;;;;;;;;13.50;13.50;;;;;;;;2;261074228;261074228;-85
2022/03/18 12:37:14;;;;;;;;;10.50;10.50;;;;;;;;2;261075801;261075801;-85
2022/03/18 12:46:17;;;;;;;;;8.50;8.50;;;;;;;;2;261077012;261077012;-84
2022/03/18 12:54:39;;;;;;;;;10.50;10.50;;;;;;;;2;261077102;261077102;-84
2022/03/18 13:03:47;;;;;;;;;8.50;8.50;;;;;;;;2;261076334;261076334;-84
2022/03/18 13:12:05;;;;;;;;;8.50;8.50;;;;;;;;2;261075877;261075877;-84
2022/03/18 13:21:09;;;;;;;;;9.00;9.00;;;;;;;;2;261076917;261076917;-84
2022/03/18 13:38:47;;;;;;;;;4.50;4.50;;;;;;;;2;261075713;261075713;-84
2022/03/18 13:47:07;;;;;;;;;5.50;5.50;;;;;;;;2;261077298;261077298;-84
2022/03/18 13:56:15;;;;;;;;;5.00;5.00;;;;;;;;2;261073731;261073731;-84
2022/03/18 14:04:40;;;;;;;;;7.00;7.00;;;;;;;;2;261075444;261075444;-84
2022/03/18 14:13:40;;;;;;;;;7.50;7.50;;;;;;;;2;261075709;261075709;-85
2022/03/18 14:21:56;;;;;;;;;5.50;5.50;;;;;;;;2;261076839;261076839;-84
2022/03/18 14:30:57;;;;;;;;;5.00;3.00;;;;;;;;2;261073264;261073264;-84
2022/03/18 14:39:12;;;;;;;;;7.00;7.00;;;;;;;;2;261076354;261076354;-84
2022/03/18 14:48:13;;;;;;;;;10.00;10.00;;;;;;;;2;261077529;261077529;-83
2022/03/18 14:56:28;;;;;;;;;10.00;10.00;;;;;;;;2;261076374;261076374;-83
2022/03/18 15:05:29;;;;;;;;;8.50;8.50;;;;;;;;2;261075898;261075898;-82
2022/03/18 15:13:46;;;;;;;;;11.00;11.00;;;;;;;;2;261074920;261074920;-83
2022/03/18 15:22:47;;;;;;;;;13.50;13.50;;;;;;;;2;261075111;261075111;-83
2022/03/18 15:31:05;;;;;;;;;16.50;10.00;;;;;;;;2;261076280;261076280;-82
2022/03/18 15:40:08;;;;;;;;;18.00;18.00;;;;;;;;2;261075344;261075344;-81
2022/03/18 15:48:24;;;;;;;;;16.00;16.00;;;;;;;;2;261077501;261077501;-81
2022/03/18 15:57:25;;;;;;;;;10.00;10.00;;;;;;;;2;261076812;261076812;-82
2022/03/18 16:05:54;;;;;;;;;14.00;11.50;;;;;;;;2;261075627;261075627;-82
2022/03/18 16:14:54;;;;;;;;;13.00;7.50;;;;;;;;2;261080027;261080027;-81
2022/03/18 16:23:13;;;;;;;;;9.50;5.50;;;;;;;;2;261084387;261084387;-82
2022/03/18 16:32:13;;;;;;;;;9.00;9.00;;;;;;;;2;261074741;261074741;-80
2022/03/18 16:40:30;;;;;;;;;9.50;9.50;;;;;;;;2;261078674;261078674;-80
2022/03/18 16:49:31;;;;;;;;;7.00;7.00;;;;;;;;2;261080283;261080283;-81
2022/03/18 16:57:50;;;;;;;;;9.50;8.00;;;;;;;;2;261077617;261077617;-81
2022/03/18 17:06:52;;;;;;;;;10.00;8.50;;;;;;;;2;261081423;261081423;-81
2022/03/18 17:15:07;;;;;;;;;5.50;5.50;;;;;;;;2;261078724;261078724;-81
2022/03/18 17:24:11;;;;;;;;;20.00;8.00;;;;;;;;2;261078921;261078921;-81
2022/03/18 17:32:26;;;;;;;;;10.00;10.00;;;;;;;;2;261078396;261078396;-81
2022/03/18 17:41:28;;;;;;;;;21.50;10.50;;;;;;;;2;261082003;261082003;-81
2022/03/18 17:49:44;;;;;;;;;13.00;8.50;;;;;;;;2;261076540;261076540;-81
2022/03/18 17:58:45;;;;;;;;;9.50;9.50;;;;;;;;2;261074191;261074191;-80
2022/03/18 18:07:02;;;;;;;;;8.00;8.00;;;;;;;;2;261076602;261076602;-82
2022/03/18 18:16:02;;;;;;;;;11.50;11.50;;;;;;;;2;261078240;261078240;-81
2022/03/18 18:24:18;;;;;;;;;14.50;11.50;;;;;;;;2;261078448;261078448;-81
2022/03/18 18:33:18;;;;;;;;;7.00;7.00;;;;;;;;2;261081988;261081988;-82
2022/03/18 18:41:33;;;;;;;;;6.00;6.00;;;;;;;;2;260969351;260969351;-84
2022/03/18 18:50:34;;;;;;;;;23.50;11.50;;;;;;;;2;261075518;261075518;-84
2022/03/18 18:58:50;;;;;;;;;6.50;6.50;;;;;;;;2;261077486;261077486;-84
2022/03/18 19:08:03;;;;;;;;;;;;;;;;;;;;;
2022/03/18 19:16:30;;;;;;;;;9.50;9.50;;;;;;;;2;261110796;261110796;-83
2022/03/18 19:25:59;;;;;;;;;9.00;9.00;;;;;;;;2;261082272;261082272;-82
2022/03/18 19:34:17;;;;;;;;;16.00;11.00;;;;;;;;2;261090123;261090123;-82
2022/03/18 19:43:19;;;;;;;;;9.50;9.50;;;;;;;;2;261081441;261081441;-82
2022/03/18 19:51:34;;;;;;;;;12.00;12.00;;;;;;;;2;261078368;261078368;-82
2022/03/18 20:09:02;;;;;;;;;20.00;15.00;;;;;;;;2;261079559;261079559;-82
2022/03/18 20:18:03;;;;;;;;;9.50;9.50;;;;;;;;2;261079776;261079776;-82
2022/03/18 20:26:19;;;;;;;;;10.00;10.00;;;;;;;;2;261084697;261084697;-81
2022/03/18 20:35:20;;;;;;;;;23.50;23.50;;;;;;;;2;261088842;261088842;-82
2022/03/18 20:43:36;;;;;;;;;21.50;18.00;;;;;;;;2;261083760;261083760;-82
2022/03/18 20:52:36;;;;;;;;;14.00;10.00;;;;;;;;2;261083666;261083666;-82
2022/03/18 21:00:53;;;;;;;;;8.50;8.50;;;;;;;;2;261077671;261077671;-82
2022/03/18 21:09:53;;;;;;;;;24.00;12.00;;;;;;;;2;261079801;261079801;-82
2022/03/18 21:18:08;;;;;;;;;10.00;10.00;;;;;;;;2;261086596;261086596;-82
2022/03/18 21:35:45;;;;;;;;;20.00;8.00;;;;;;;;2;261085133;261085133;-82
2022/03/18 21:48:09;;;;;;;;;10.50;10.50;;;;;;;;2;261078393;261078393;-82
2022/03/18 21:56:24;;;;;;;;;3.50;3.50;;;;;;;;2;261080474;261080474;-82
2022/03/18 22:05:25;;;;;;;;;15.00;15.00;;;;;;;;2;261080741;261080741;-83
2022/03/18 22:13:41;;;;;;;;;3.00;3.00;;;;;;;;2;261080781;261080781;-83
2022/03/18 22:22:42;;;;;;;;;20.00;8.00;;;;;;;;2;261078090;261078090;-82
2022/03/18 22:30:58;;;;;;;;;10.00;10.00;;;;;;;;2;261078699;261078699;-83
2022/03/18 22:39:59;;;;;;;;;3.00;3.00;;;;;;;;2;261082734;261082734;-83
2022/03/18 22:48:14;;;;;;;;;9.50;9.50;;;;;;;;2;261083450;261083450;-83
2022/03/18 22:57:14;;;;;;;;;7.50;7.50;;;;;;;;2;261078436;261078436;-82
2022/03/18 23:05:30;;;;;;;;;19.50;5.00;;;;;;;;2;261080215;261080215;-84
2022/03/18 23:14:30;;;;;;;;;4.50;4.50;;;;;;;;2;261078758;261078758;-83
2022/03/18 23:22:46;;;;;;;;;13.00;13.00;;;;;;;;2;261080566;261080566;-84
2022/03/18 23:31:48;;;;;;;;;4.50;4.50;;;;;;;;2;261075990;261075990;-84
2022/03/18 23:40:05;;;;;;;;;7.00;7.00;;;;;;;;2;261079164;261079164;-84
2022/03/18 23:49:05;;;;;;;;;6.50;6.50;;;;;;;;2;261077857;261077857;-83
2022/03/18 23:57:21;;;;;;;;;8.50;8.50;;;;;;;;2;260993770;260993770;-85
